sensor_id;sensor_type;location;lat;lon;timestamp;P1;durP1;ratioP1;P2;durP2;ratioP2
79452;SDS011;68899;52.116;5.404;2023-12-14T00:00:37;12.30;;;5.80;;
79452;SDS011;68899;52.116;5.404;2023-12-14T00:03:03;12.57;;;5.55;;
79452;SDS011;68899;52.116;5.404;2023-12-14T00:05:29;12.27;;;6.60;;
79452;SDS011;68899;52.116;5.404;2023-12-14T00:07:56;12.80;;;5.75;;
79452;SDS011;68899;52.116;5.404;2023-12-14T00:10:22;11.45;;;6.53;;
79452;SDS011;68899;52.116;5.404;2023-12-14T00:12:49;11.88;;;6.55;;
79452;SDS011;68899;52.116;5.404;2023-12-14T00:15:17;15.55;;;6.97;;
79452;SDS011;68899;52.116;5.404;2023-12-14T00:17:44;16.40;;;7.80;;
79452;SDS011;68899;52.116;5.404;2023-12-14T00:20:10;15.38;;;7.50;;
79452;SDS011;68899;52.116;5.404;2023-12-14T00:22:37;12.52;;;5.88;;
79452;SDS011;68899;52.116;5.404;2023-12-14T00:25:04;10.38;;;5.93;;
79452;SDS011;68899;52.116;5.404;2023-12-14T00:27:31;10.32;;;6.55;;
79452;SDS011;68899;52.116;5.404;2023-12-14T00:29:57;11.85;;;6.97;;
79452;SDS011;68899;52.116;5.404;2023-12-14T00:32:24;11.77;;;7.07;;
79452;SDS011;68899;52.116;5.404;2023-12-14T00:34:50;11.43;;;6.07;;
79452;SDS011;68899;52.116;5.404;2023-12-14T00:37:17;11.75;;;6.85;;
79452;SDS011;68899;52.116;5.404;2023-12-14T00:39:43;10.75;;;5.97;;
79452;SDS011;68899;52.116;5.404;2023-12-14T00:42:10;14.30;;;6.47;;
79452;SDS011;68899;52.116;5.404;2023-12-14T00:44:36;9.70;;;5.57;;
79452;SDS011;68899;52.116;5.404;2023-12-14T00:47:03;12.15;;;6.28;;
79452;SDS011;68899;52.116;5.404;2023-12-14T00:49:29;11.07;;;6.32;;
79452;SDS011;68899;52.116;5.404;2023-12-14T00:51:56;9.70;;;5.65;;
79452;SDS011;68899;52.116;5.404;2023-12-14T00:54:24;10.52;;;7.25;;
79452;SDS011;68899;52.116;5.404;2023-12-14T00:56:51;13.18;;;7.38;;
79452;SDS011;68899;52.116;5.404;2023-12-14T00:59:17;13.20;;;6.70;;
79452;SDS011;68899;52.116;5.404;2023-12-14T01:01:44;11.80;;;5.60;;
79452;SDS011;68899;52.116;5.404;2023-12-14T01:04:10;11.38;;;7.35;;
79452;SDS011;68899;52.116;5.404;2023-12-14T01:06:37;11.93;;;6.25;;
79452;SDS011;68899;52.116;5.404;2023-12-14T01:09:03;10.38;;;6.30;;
79452;SDS011;68899;52.116;5.404;2023-12-14T01:11:30;10.57;;;6.20;;
79452;SDS011;68899;52.116;5.404;2023-12-14T01:13:56;10.32;;;5.88;;
79452;SDS011;68899;52.116;5.404;2023-12-14T01:16:25;10.75;;;5.30;;
79452;SDS011;68899;52.116;5.404;2023-12-14T01:18:52;12.20;;;6.43;;
79452;SDS011;68899;52.116;5.404;2023-12-14T01:21:19;13.77;;;8.50;;
79452;SDS011;68899;52.116;5.404;2023-12-14T01:23:45;9.77;;;5.57;;
79452;SDS011;68899;52.116;5.404;2023-12-14T01:26:12;12.18;;;7.22;;
79452;SDS011;68899;52.116;5.404;2023-12-14T01:28:38;10.70;;;6.55;;
79452;SDS011;68899;52.116;5.404;2023-12-14T01:31:05;11.77;;;6.30;;
79452;SDS011;68899;52.116;5.404;2023-12-14T01:33:31;11.10;;;6.38;;
79452;SDS011;68899;52.116;5.404;2023-12-14T01:35:58;10.10;;;6.20;;
79452;SDS011;68899;52.116;5.404;2023-12-14T01:38:24;9.88;;;5.32;;
79452;SDS011;68899;52.116;5.404;2023-12-14T01:40:51;10.35;;;5.85;;
79452;SDS011;68899;52.116;5.404;2023-12-14T01:43:17;11.50;;;6.45;;
79452;SDS011;68899;52.116;5.404;2023-12-14T01:45:44;10.77;;;6.10;;
79452;SDS011;68899;52.116;5.404;2023-12-14T01:48:10;10.70;;;5.80;;
79452;SDS011;68899;52.116;5.404;2023-12-14T01:50:37;12.13;;;7.60;;
79452;SDS011;68899;52.116;5.404;2023-12-14T01:53:04;11.88;;;6.43;;
79452;SDS011;68899;52.116;5.404;2023-12-14T01:55:30;10.60;;;6.13;;
79452;SDS011;68899;52.116;5.404;2023-12-14T01:57:57;11.35;;;5.18;;
79452;SDS011;68899;52.116;5.404;2023-12-14T02:03:02;12.77;;;7.40;;
79452;SDS011;68899;52.116;5.404;2023-12-14T02:05:28;10.98;;;5.88;;
79452;SDS011;68899;52.116;5.404;2023-12-14T02:07:55;12.35;;;6.75;;
79452;SDS011;68899;52.116;5.404;2023-12-14T02:10:23;10.93;;;5.97;;
79452;SDS011;68899;52.116;5.404;2023-12-14T02:12:49;11.63;;;7.07;;
79452;SDS011;68899;52.116;5.404;2023-12-14T02:15:16;10.43;;;6.05;;
79452;SDS011;68899;52.116;5.404;2023-12-14T02:17:42;10.95;;;6.43;;
79452;SDS011;68899;52.116;5.404;2023-12-14T02:20:09;10.93;;;6.15;;
79452;SDS011;68899;52.116;5.404;2023-12-14T02:22:49;11.30;;;6.50;;
79452;SDS011;68899;52.116;5.404;2023-12-14T02:25:16;10.43;;;5.68;;
79452;SDS011;68899;52.116;5.404;2023-12-14T02:27:43;13.27;;;6.35;;
79452;SDS011;68899;52.116;5.404;2023-12-14T02:30:10;10.27;;;6.25;;
79452;SDS011;68899;52.116;5.404;2023-12-14T02:32:38;11.20;;;6.78;;
79452;SDS011;68899;52.116;5.404;2023-12-14T02:35:06;11.20;;;6.32;;
79452;SDS011;68899;52.116;5.404;2023-12-14T02:37:33;12.15;;;6.28;;
79452;SDS011;68899;52.116;5.404;2023-12-14T02:40:03;10.38;;;6.25;;
79452;SDS011;68899;52.116;5.404;2023-12-14T02:42:30;10.77;;;6.60;;
79452;SDS011;68899;52.116;5.404;2023-12-14T02:44:57;10.98;;;6.03;;
79452;SDS011;68899;52.116;5.404;2023-12-14T02:47:24;10.48;;;6.57;;
79452;SDS011;68899;52.116;5.404;2023-12-14T02:49:50;11.52;;;5.43;;
79452;SDS011;68899;52.116;5.404;2023-12-14T02:52:17;9.13;;;6.22;;
79452;SDS011;68899;52.116;5.404;2023-12-14T02:54:43;10.68;;;6.07;;
79452;SDS011;68899;52.116;5.404;2023-12-14T02:57:09;9.35;;;5.82;;
79452;SDS011;68899;52.116;5.404;2023-12-14T02:59:36;11.02;;;6.13;;
79452;SDS011;68899;52.116;5.404;2023-12-14T03:02:03;11.02;;;7.20;;
79452;SDS011;68899;52.116;5.404;2023-12-14T03:04:29;10.60;;;6.53;;
79452;SDS011;68899;52.116;5.404;2023-12-14T03:06:56;11.18;;;6.10;;
79452;SDS011;68899;52.116;5.404;2023-12-14T03:09:22;10.00;;;6.80;;
79452;SDS011;68899;52.116;5.404;2023-12-14T03:11:49;10.65;;;6.10;;
79452;SDS011;68899;52.116;5.404;2023-12-14T03:14:15;11.88;;;7.35;;
79452;SDS011;68899;52.116;5.404;2023-12-14T03:16:41;10.90;;;6.95;;
79452;SDS011;68899;52.116;5.404;2023-12-14T03:19:08;10.18;;;6.15;;
79452;SDS011;68899;52.116;5.404;2023-12-14T03:21:35;11.23;;;6.55;;
79452;SDS011;68899;52.116;5.404;2023-12-14T03:24:01;11.82;;;6.10;;
79452;SDS011;68899;52.116;5.404;2023-12-14T03:26:28;12.63;;;6.68;;
79452;SDS011;68899;52.116;5.404;2023-12-14T03:28:55;13.05;;;6.88;;
79452;SDS011;68899;52.116;5.404;2023-12-14T03:31:21;10.30;;;6.65;;
79452;SDS011;68899;52.116;5.404;2023-12-14T03:33:48;12.32;;;6.60;;
79452;SDS011;68899;52.116;5.404;2023-12-14T03:36:14;10.32;;;6.00;;
79452;SDS011;68899;52.116;5.404;2023-12-14T03:38:41;13.13;;;6.90;;
79452;SDS011;68899;52.116;5.404;2023-12-14T03:41:07;12.25;;;7.30;;
79452;SDS011;68899;52.116;5.404;2023-12-14T03:43:34;14.73;;;6.65;;
79452;SDS011;68899;52.116;5.404;2023-12-14T03:46:01;11.98;;;6.95;;
79452;SDS011;68899;52.116;5.404;2023-12-14T03:48:27;12.05;;;5.97;;
79452;SDS011;68899;52.116;5.404;2023-12-14T03:50:54;14.57;;;7.10;;
79452;SDS011;68899;52.116;5.404;2023-12-14T03:53:20;10.75;;;6.70;;
79452;SDS011;68899;52.116;5.404;2023-12-14T03:55:46;11.98;;;7.65;;
79452;SDS011;68899;52.116;5.404;2023-12-14T03:58:13;13.93;;;7.20;;
79452;SDS011;68899;52.116;5.404;2023-12-14T04:00:40;13.13;;;7.15;;
79452;SDS011;68899;52.116;5.404;2023-12-14T04:03:06;11.93;;;6.93;;
79452;SDS011;68899;52.116;5.404;2023-12-14T04:05:33;11.80;;;6.28;;
79452;SDS011;68899;52.116;5.404;2023-12-14T04:07:59;13.43;;;6.85;;
79452;SDS011;68899;52.116;5.404;2023-12-14T04:10:26;13.68;;;6.60;;
79452;SDS011;68899;52.116;5.404;2023-12-14T04:12:52;15.05;;;6.93;;
79452;SDS011;68899;52.116;5.404;2023-12-14T04:15:19;14.30;;;7.05;;
79452;SDS011;68899;52.116;5.404;2023-12-14T04:17:45;12.57;;;6.70;;
79452;SDS011;68899;52.116;5.404;2023-12-14T04:20:12;13.10;;;7.10;;
79452;SDS011;68899;52.116;5.404;2023-12-14T04:22:45;13.02;;;6.45;;
79452;SDS011;68899;52.116;5.404;2023-12-14T04:25:11;11.50;;;6.90;;
79452;SDS011;68899;52.116;5.404;2023-12-14T04:27:38;10.27;;;6.60;;
79452;SDS011;68899;52.116;5.404;2023-12-14T04:30:04;12.23;;;7.13;;
79452;SDS011;68899;52.116;5.404;2023-12-14T04:32:31;13.45;;;6.32;;
79452;SDS011;68899;52.116;5.404;2023-12-14T04:34:58;11.88;;;5.53;;
79452;SDS011;68899;52.116;5.404;2023-12-14T04:37:25;12.07;;;6.35;;
79452;SDS011;68899;52.116;5.404;2023-12-14T04:39:51;11.48;;;6.32;;
79452;SDS011;68899;52.116;5.404;2023-12-14T04:42:18;10.75;;;5.38;;
79452;SDS011;68899;52.116;5.404;2023-12-14T04:44:44;11.90;;;5.85;;
79452;SDS011;68899;52.116;5.404;2023-12-14T04:47:10;11.25;;;5.93;;
79452;SDS011;68899;52.116;5.404;2023-12-14T04:49:37;9.45;;;5.45;;
79452;SDS011;68899;52.116;5.404;2023-12-14T04:52:04;10.90;;;4.65;;
79452;SDS011;68899;52.116;5.404;2023-12-14T04:54:31;11.55;;;5.47;;
79452;SDS011;68899;52.116;5.404;2023-12-14T04:56:57;8.75;;;4.75;;
79452;SDS011;68899;52.116;5.404;2023-12-14T04:59:24;10.27;;;5.68;;
79452;SDS011;68899;52.116;5.404;2023-12-14T05:01:50;11.70;;;5.38;;
79452;SDS011;68899;52.116;5.404;2023-12-14T05:04:17;9.63;;;5.43;;
79452;SDS011;68899;52.116;5.404;2023-12-14T05:06:43;9.80;;;5.25;;
79452;SDS011;68899;52.116;5.404;2023-12-14T05:09:09;9.77;;;5.03;;
79452;SDS011;68899;52.116;5.404;2023-12-14T05:11:39;8.68;;;4.57;;
79452;SDS011;68899;52.116;5.404;2023-12-14T05:14:06;9.43;;;5.35;;
79452;SDS011;68899;52.116;5.404;2023-12-14T05:16:33;12.23;;;5.32;;
79452;SDS011;68899;52.116;5.404;2023-12-14T05:19:00;11.65;;;5.43;;
79452;SDS011;68899;52.116;5.404;2023-12-14T05:21:26;8.88;;;4.97;;
79452;SDS011;68899;52.116;5.404;2023-12-14T05:23:53;11.30;;;5.50;;
79452;SDS011;68899;52.116;5.404;2023-12-14T05:26:19;9.82;;;5.63;;
79452;SDS011;68899;52.116;5.404;2023-12-14T05:28:46;8.48;;;4.65;;
79452;SDS011;68899;52.116;5.404;2023-12-14T05:31:12;10.27;;;5.00;;
79452;SDS011;68899;52.116;5.404;2023-12-14T05:33:39;10.45;;;5.57;;
79452;SDS011;68899;52.116;5.404;2023-12-14T05:36:06;7.88;;;4.32;;
79452;SDS011;68899;52.116;5.404;2023-12-14T05:38:40;9.50;;;5.03;;
79452;SDS011;68899;52.116;5.404;2023-12-14T05:41:08;8.07;;;4.68;;
79452;SDS011;68899;52.116;5.404;2023-12-14T05:43:34;12.68;;;5.05;;
79452;SDS011;68899;52.116;5.404;2023-12-14T05:46:02;11.07;;;5.22;;
79452;SDS011;68899;52.116;5.404;2023-12-14T05:48:29;7.80;;;4.03;;
79452;SDS011;68899;52.116;5.404;2023-12-14T05:50:56;9.25;;;4.30;;
79452;SDS011;68899;52.116;5.404;2023-12-14T05:53:23;8.40;;;4.53;;
79452;SDS011;68899;52.116;5.404;2023-12-14T05:55:50;9.23;;;5.30;;
79452;SDS011;68899;52.116;5.404;2023-12-14T05:58:16;9.43;;;5.07;;
79452;SDS011;68899;52.116;5.404;2023-12-14T06:00:43;8.70;;;4.97;;
79452;SDS011;68899;52.116;5.404;2023-12-14T06:03:09;8.68;;;4.85;;
79452;SDS011;68899;52.116;5.404;2023-12-14T06:05:35;9.93;;;5.45;;
79452;SDS011;68899;52.116;5.404;2023-12-14T06:08:02;8.40;;;4.90;;
79452;SDS011;68899;52.116;5.404;2023-12-14T06:10:28;10.73;;;5.25;;
79452;SDS011;68899;52.116;5.404;2023-12-14T06:12:56;12.13;;;4.97;;
79452;SDS011;68899;52.116;5.404;2023-12-14T06:15:22;8.70;;;5.70;;
79452;SDS011;68899;52.116;5.404;2023-12-14T06:17:48;7.07;;;4.15;;
79452;SDS011;68899;52.116;5.404;2023-12-14T06:20:16;8.82;;;4.50;;
79452;SDS011;68899;52.116;5.404;2023-12-14T06:22:43;8.60;;;4.43;;
79452;SDS011;68899;52.116;5.404;2023-12-14T06:25:09;8.70;;;4.60;;
79452;SDS011;68899;52.116;5.404;2023-12-14T06:27:36;7.47;;;4.38;;
79452;SDS011;68899;52.116;5.404;2023-12-14T06:30:02;8.13;;;4.55;;
79452;SDS011;68899;52.116;5.404;2023-12-14T06:32:29;8.88;;;4.78;;
79452;SDS011;68899;52.116;5.404;2023-12-14T06:34:56;10.50;;;4.63;;
79452;SDS011;68899;52.116;5.404;2023-12-14T06:37:22;7.35;;;4.03;;
79452;SDS011;68899;52.116;5.404;2023-12-14T06:39:49;7.93;;;4.18;;
79452;SDS011;68899;52.116;5.404;2023-12-14T06:42:15;7.97;;;4.68;;
79452;SDS011;68899;52.116;5.404;2023-12-14T06:44:42;7.72;;;4.00;;
79452;SDS011;68899;52.116;5.404;2023-12-14T06:47:08;7.63;;;4.03;;
79452;SDS011;68899;52.116;5.404;2023-12-14T06:49:35;8.80;;;4.25;;
79452;SDS011;68899;52.116;5.404;2023-12-14T06:52:01;9.25;;;4.70;;
79452;SDS011;68899;52.116;5.404;2023-12-14T06:54:28;9.82;;;4.88;;
79452;SDS011;68899;52.116;5.404;2023-12-14T06:56:54;7.65;;;4.68;;
79452;SDS011;68899;52.116;5.404;2023-12-14T06:59:21;8.88;;;5.30;;
79452;SDS011;68899;52.116;5.404;2023-12-14T07:01:47;7.00;;;4.13;;
79452;SDS011;68899;52.116;5.404;2023-12-14T07:04:14;8.25;;;4.68;;
79452;SDS011;68899;52.116;5.404;2023-12-14T07:06:42;7.55;;;4.55;;
79452;SDS011;68899;52.116;5.404;2023-12-14T07:09:09;6.32;;;3.40;;
79452;SDS011;68899;52.116;5.404;2023-12-14T07:11:35;7.97;;;3.90;;
79452;SDS011;68899;52.116;5.404;2023-12-14T07:14:02;8.07;;;4.25;;
79452;SDS011;68899;52.116;5.404;2023-12-14T07:16:29;7.07;;;3.22;;
79452;SDS011;68899;52.116;5.404;2023-12-14T07:18:56;9.43;;;3.92;;
79452;SDS011;68899;52.116;5.404;2023-12-14T07:21:22;7.78;;;3.95;;
79452;SDS011;68899;52.116;5.404;2023-12-14T07:23:49;7.88;;;4.68;;
79452;SDS011;68899;52.116;5.404;2023-12-14T07:26:15;10.13;;;4.85;;
79452;SDS011;68899;52.116;5.404;2023-12-14T07:28:42;7.95;;;4.43;;
79452;SDS011;68899;52.116;5.404;2023-12-14T07:31:08;7.38;;;4.63;;
79452;SDS011;68899;52.116;5.404;2023-12-14T07:33:35;8.00;;;4.50;;
79452;SDS011;68899;52.116;5.404;2023-12-14T07:36:02;7.72;;;4.80;;
79452;SDS011;68899;52.116;5.404;2023-12-14T07:38:31;8.57;;;4.18;;
79452;SDS011;68899;52.116;5.404;2023-12-14T07:40:57;8.75;;;4.75;;
79452;SDS011;68899;52.116;5.404;2023-12-14T07:43:24;9.23;;;4.93;;
79452;SDS011;68899;52.116;5.404;2023-12-14T07:45:50;9.70;;;4.15;;
79452;SDS011;68899;52.116;5.404;2023-12-14T07:48:17;8.55;;;4.63;;
79452;SDS011;68899;52.116;5.404;2023-12-14T07:50:43;9.45;;;5.20;;
79452;SDS011;68899;52.116;5.404;2023-12-14T07:53:10;8.05;;;4.38;;
79452;SDS011;68899;52.116;5.404;2023-12-14T07:55:36;8.70;;;4.80;;
79452;SDS011;68899;52.116;5.404;2023-12-14T07:58:03;7.68;;;5.43;;
79452;SDS011;68899;52.116;5.404;2023-12-14T08:00:33;7.72;;;4.30;;
79452;SDS011;68899;52.116;5.404;2023-12-14T08:02:59;8.32;;;5.28;;
79452;SDS011;68899;52.116;5.404;2023-12-14T08:05:27;9.25;;;4.97;;
79452;SDS011;68899;52.116;5.404;2023-12-14T08:07:53;7.55;;;4.47;;
79452;SDS011;68899;52.116;5.404;2023-12-14T08:10:20;8.32;;;5.28;;
79452;SDS011;68899;52.116;5.404;2023-12-14T08:12:46;9.85;;;5.05;;
79452;SDS011;68899;52.116;5.404;2023-12-14T08:15:13;8.68;;;4.95;;
79452;SDS011;68899;52.116;5.404;2023-12-14T08:17:40;9.60;;;5.22;;
79452;SDS011;68899;52.116;5.404;2023-12-14T08:20:07;9.77;;;4.65;;
79452;SDS011;68899;52.116;5.404;2023-12-14T08:22:35;9.70;;;5.25;;
79452;SDS011;68899;52.116;5.404;2023-12-14T08:25:02;7.28;;;4.70;;
79452;SDS011;68899;52.116;5.404;2023-12-14T08:27:29;9.98;;;4.70;;
79452;SDS011;68899;52.116;5.404;2023-12-14T08:29:56;8.15;;;3.70;;
79452;SDS011;68899;52.116;5.404;2023-12-14T08:32:22;7.35;;;4.45;;
79452;SDS011;68899;52.116;5.404;2023-12-14T08:34:49;8.40;;;4.95;;
79452;SDS011;68899;52.116;5.404;2023-12-14T08:37:15;8.13;;;4.60;;
79452;SDS011;68899;52.116;5.404;2023-12-14T08:39:42;14.20;;;5.88;;
79452;SDS011;68899;52.116;5.404;2023-12-14T08:42:08;10.30;;;5.25;;
79452;SDS011;68899;52.116;5.404;2023-12-14T08:44:38;9.60;;;5.03;;
79452;SDS011;68899;52.116;5.404;2023-12-14T08:47:06;9.90;;;5.13;;
79452;SDS011;68899;52.116;5.404;2023-12-14T08:49:35;10.50;;;5.25;;
79452;SDS011;68899;52.116;5.404;2023-12-14T08:52:02;8.88;;;5.40;;
79452;SDS011;68899;52.116;5.404;2023-12-14T08:54:30;8.10;;;5.15;;
79452;SDS011;68899;52.116;5.404;2023-12-14T08:56:56;11.13;;;5.07;;
79452;SDS011;68899;52.116;5.404;2023-12-14T08:59:23;6.85;;;4.13;;
79452;SDS011;68899;52.116;5.404;2023-12-14T09:01:49;7.13;;;4.32;;
79452;SDS011;68899;52.116;5.404;2023-12-14T09:04:16;9.88;;;5.97;;
79452;SDS011;68899;52.116;5.404;2023-12-14T09:06:43;8.15;;;5.45;;
79452;SDS011;68899;52.116;5.404;2023-12-14T09:09:11;9.75;;;5.32;;
79452;SDS011;68899;52.116;5.404;2023-12-14T09:11:37;9.75;;;4.90;;
79452;SDS011;68899;52.116;5.404;2023-12-14T09:14:04;9.95;;;5.75;;
79452;SDS011;68899;52.116;5.404;2023-12-14T09:16:31;11.95;;;4.57;;
79452;SDS011;68899;52.116;5.404;2023-12-14T09:18:57;9.88;;;5.35;;
79452;SDS011;68899;52.116;5.404;2023-12-14T09:21:24;8.63;;;5.00;;
79452;SDS011;68899;52.116;5.404;2023-12-14T09:24:05;9.65;;;5.70;;
79452;SDS011;68899;52.116;5.404;2023-12-14T09:26:35;9.23;;;5.03;;
79452;SDS011;68899;52.116;5.404;2023-12-14T09:29:01;8.70;;;5.43;;
79452;SDS011;68899;52.116;5.404;2023-12-14T09:31:28;9.27;;;5.53;;
79452;SDS011;68899;52.116;5.404;2023-12-14T09:33:55;9.07;;;5.38;;
79452;SDS011;68899;52.116;5.404;2023-12-14T09:36:22;9.65;;;5.05;;
79452;SDS011;68899;52.116;5.404;2023-12-14T09:38:48;9.52;;;5.05;;
79452;SDS011;68899;52.116;5.404;2023-12-14T09:41:15;8.23;;;4.97;;
79452;SDS011;68899;52.116;5.404;2023-12-14T09:43:41;9.45;;;5.53;;
79452;SDS011;68899;52.116;5.404;2023-12-14T09:46:08;7.95;;;5.13;;
79452;SDS011;68899;52.116;5.404;2023-12-14T09:48:36;10.57;;;5.85;;
79452;SDS011;68899;52.116;5.404;2023-12-14T09:51:02;9.30;;;5.45;;
79452;SDS011;68899;52.116;5.404;2023-12-14T09:53:30;8.63;;;5.45;;
79452;SDS011;68899;52.116;5.404;2023-12-14T09:55:56;8.50;;;4.90;;
79452;SDS011;68899;52.116;5.404;2023-12-14T09:58:23;7.32;;;5.13;;
79452;SDS011;68899;52.116;5.404;2023-12-14T10:00:49;8.25;;;4.38;;
79452;SDS011;68899;52.116;5.404;2023-12-14T10:03:23;10.02;;;5.32;;
79452;SDS011;68899;52.116;5.404;2023-12-14T10:05:53;12.20;;;4.80;;
79452;SDS011;68899;52.116;5.404;2023-12-14T10:08:24;7.45;;;4.07;;
79452;SDS011;68899;52.116;5.404;2023-12-14T10:10:53;6.65;;;3.08;;
79452;SDS011;68899;52.116;5.404;2023-12-14T10:13:22;6.90;;;4.32;;
79452;SDS011;68899;52.116;5.404;2023-12-14T10:16:09;8.25;;;5.05;;
79452;SDS011;68899;52.116;5.404;2023-12-14T10:18:35;7.50;;;4.68;;
79452;SDS011;68899;52.116;5.404;2023-12-14T10:21:03;9.10;;;4.55;;
79452;SDS011;68899;52.116;5.404;2023-12-14T10:23:33;10.05;;;4.35;;
79452;SDS011;68899;52.116;5.404;2023-12-14T10:26:01;8.90;;;4.43;;
79452;SDS011;68899;52.116;5.404;2023-12-14T10:28:27;9.10;;;4.43;;
79452;SDS011;68899;52.116;5.404;2023-12-14T10:30:55;9.20;;;4.97;;
79452;SDS011;68899;52.116;5.404;2023-12-14T10:33:21;8.10;;;4.30;;
79452;SDS011;68899;52.116;5.404;2023-12-14T10:35:48;7.70;;;4.32;;
79452;SDS011;68899;52.116;5.404;2023-12-14T10:38:15;8.98;;;4.72;;
79452;SDS011;68899;52.116;5.404;2023-12-14T10:40:43;8.63;;;4.65;;
79452;SDS011;68899;52.116;5.404;2023-12-14T10:43:12;9.15;;;5.07;;
79452;SDS011;68899;52.116;5.404;2023-12-14T10:45:41;9.40;;;4.65;;
79452;SDS011;68899;52.116;5.404;2023-12-14T10:48:11;8.05;;;4.25;;
79452;SDS011;68899;52.116;5.404;2023-12-14T10:50:42;6.80;;;4.55;;
79452;SDS011;68899;52.116;5.404;2023-12-14T10:53:08;7.07;;;4.45;;
79452;SDS011;68899;52.116;5.404;2023-12-14T10:55:43;7.53;;;4.50;;
79452;SDS011;68899;52.116;5.404;2023-12-14T10:58:11;7.75;;;4.55;;
79452;SDS011;68899;52.116;5.404;2023-12-14T11:00:37;7.88;;;4.63;;
79452;SDS011;68899;52.116;5.404;2023-12-14T11:03:05;8.38;;;4.80;;
79452;SDS011;68899;52.116;5.404;2023-12-14T11:05:32;7.75;;;5.20;;
79452;SDS011;68899;52.116;5.404;2023-12-14T11:08:04;7.90;;;4.45;;
79452;SDS011;68899;52.116;5.404;2023-12-14T11:10:43;8.20;;;4.68;;
79452;SDS011;68899;52.116;5.404;2023-12-14T11:13:21;8.38;;;4.80;;
79452;SDS011;68899;52.116;5.404;2023-12-14T11:15:49;7.47;;;4.68;;
79452;SDS011;68899;52.116;5.404;2023-12-14T11:18:20;8.10;;;4.82;;
79452;SDS011;68899;52.116;5.404;2023-12-14T11:20:49;7.97;;;4.50;;
79452;SDS011;68899;52.116;5.404;2023-12-14T11:23:17;7.45;;;4.82;;
79452;SDS011;68899;52.116;5.404;2023-12-14T11:25:56;7.13;;;4.65;;
79452;SDS011;68899;52.116;5.404;2023-12-14T11:28:26;8.05;;;4.43;;
79452;SDS011;68899;52.116;5.404;2023-12-14T11:30:54;8.40;;;4.57;;
79452;SDS011;68899;52.116;5.404;2023-12-14T11:33:23;8.45;;;3.85;;
79452;SDS011;68899;52.116;5.404;2023-12-14T11:35:50;7.90;;;5.03;;
79452;SDS011;68899;52.116;5.404;2023-12-14T11:38:19;7.00;;;3.85;;
79452;SDS011;68899;52.116;5.404;2023-12-14T11:40:47;7.20;;;4.18;;
79452;SDS011;68899;52.116;5.404;2023-12-14T11:43:15;8.13;;;4.30;;
79452;SDS011;68899;52.116;5.404;2023-12-14T11:45:42;6.65;;;4.07;;
79452;SDS011;68899;52.116;5.404;2023-12-14T11:48:10;8.98;;;5.70;;
79452;SDS011;68899;52.116;5.404;2023-12-14T11:50:39;8.52;;;4.50;;
79452;SDS011;68899;52.116;5.404;2023-12-14T11:53:07;9.10;;;5.57;;
79452;SDS011;68899;52.116;5.404;2023-12-14T11:55:34;8.55;;;4.93;;
79452;SDS011;68899;52.116;5.404;2023-12-14T11:58:02;8.15;;;4.20;;
79452;SDS011;68899;52.116;5.404;2023-12-14T12:00:29;11.25;;;4.40;;
79452;SDS011;68899;52.116;5.404;2023-12-14T12:03:10;8.95;;;5.15;;
79452;SDS011;68899;52.116;5.404;2023-12-14T12:08:06;8.38;;;4.18;;
79452;SDS011;68899;52.116;5.404;2023-12-14T12:10:33;10.23;;;5.65;;
79452;SDS011;68899;52.116;5.404;2023-12-14T12:13:03;8.35;;;4.32;;
79452;SDS011;68899;52.116;5.404;2023-12-14T12:15:31;7.57;;;5.28;;
79452;SDS011;68899;52.116;5.404;2023-12-14T12:17:58;10.02;;;5.18;;
79452;SDS011;68899;52.116;5.404;2023-12-14T12:20:26;8.15;;;3.83;;
79452;SDS011;68899;52.116;5.404;2023-12-14T12:22:53;6.28;;;4.47;;
79452;SDS011;68899;52.116;5.404;2023-12-14T12:25:20;10.43;;;5.00;;
79452;SDS011;68899;52.116;5.404;2023-12-14T12:27:47;7.13;;;4.28;;
79452;SDS011;68899;52.116;5.404;2023-12-14T12:30:13;6.95;;;3.92;;
79452;SDS011;68899;52.116;5.404;2023-12-14T12:32:41;8.10;;;4.97;;
79452;SDS011;68899;52.116;5.404;2023-12-14T12:35:08;8.00;;;4.10;;
79452;SDS011;68899;52.116;5.404;2023-12-14T12:37:35;8.07;;;4.70;;
79452;SDS011;68899;52.116;5.404;2023-12-14T12:40:02;8.07;;;4.32;;
79452;SDS011;68899;52.116;5.404;2023-12-14T12:42:30;8.13;;;4.18;;
79452;SDS011;68899;52.116;5.404;2023-12-14T12:44:57;6.57;;;4.35;;
79452;SDS011;68899;52.116;5.404;2023-12-14T12:47:24;5.75;;;4.38;;
79452;SDS011;68899;52.116;5.404;2023-12-14T12:49:50;8.25;;;4.50;;
79452;SDS011;68899;52.116;5.404;2023-12-14T12:52:17;7.22;;;4.90;;
79452;SDS011;68899;52.116;5.404;2023-12-14T12:54:44;11.18;;;4.75;;
79452;SDS011;68899;52.116;5.404;2023-12-14T12:57:10;7.50;;;4.35;;
79452;SDS011;68899;52.116;5.404;2023-12-14T12:59:37;7.50;;;4.13;;
79452;SDS011;68899;52.116;5.404;2023-12-14T13:02:03;7.32;;;4.53;;
79452;SDS011;68899;52.116;5.404;2023-12-14T13:04:30;6.70;;;3.95;;
79452;SDS011;68899;52.116;5.404;2023-12-14T13:06:57;5.85;;;3.83;;
79452;SDS011;68899;52.116;5.404;2023-12-14T13:09:24;6.47;;;3.67;;
79452;SDS011;68899;52.116;5.404;2023-12-14T13:11:51;9.02;;;4.90;;
79452;SDS011;68899;52.116;5.404;2023-12-14T13:14:20;6.95;;;3.70;;
79452;SDS011;68899;52.116;5.404;2023-12-14T13:16:47;8.35;;;3.88;;
79452;SDS011;68899;52.116;5.404;2023-12-14T13:19:15;6.75;;;3.92;;
79452;SDS011;68899;52.116;5.404;2023-12-14T13:21:42;6.35;;;3.60;;
79452;SDS011;68899;52.116;5.404;2023-12-14T13:24:08;7.20;;;4.38;;
79452;SDS011;68899;52.116;5.404;2023-12-14T13:26:35;7.25;;;3.25;;
79452;SDS011;68899;52.116;5.404;2023-12-14T13:29:01;6.43;;;4.03;;
79452;SDS011;68899;52.116;5.404;2023-12-14T13:31:29;5.38;;;2.92;;
79452;SDS011;68899;52.116;5.404;2023-12-14T13:33:55;7.03;;;4.03;;
79452;SDS011;68899;52.116;5.404;2023-12-14T13:36:22;9.88;;;3.63;;
79452;SDS011;68899;52.116;5.404;2023-12-14T13:38:49;6.00;;;3.95;;
79452;SDS011;68899;52.116;5.404;2023-12-14T13:41:16;6.97;;;3.70;;
79452;SDS011;68899;52.116;5.404;2023-12-14T13:43:42;6.55;;;3.92;;
79452;SDS011;68899;52.116;5.404;2023-12-14T13:46:10;5.07;;;3.72;;
79452;SDS011;68899;52.116;5.404;2023-12-14T13:48:47;6.10;;;3.65;;
79452;SDS011;68899;52.116;5.404;2023-12-14T13:51:13;7.63;;;3.72;;
79452;SDS011;68899;52.116;5.404;2023-12-14T13:53:41;4.90;;;3.17;;
79452;SDS011;68899;52.116;5.404;2023-12-14T13:56:07;6.32;;;3.97;;
79452;SDS011;68899;52.116;5.404;2023-12-14T13:58:35;6.43;;;4.03;;
79452;SDS011;68899;52.116;5.404;2023-12-14T14:01:07;5.22;;;2.60;;
79452;SDS011;68899;52.116;5.404;2023-12-14T14:03:34;6.43;;;3.15;;
79452;SDS011;68899;52.116;5.404;2023-12-14T14:06:02;5.90;;;3.45;;
79452;SDS011;68899;52.116;5.404;2023-12-14T14:08:28;5.65;;;3.10;;
79452;SDS011;68899;52.116;5.404;2023-12-14T14:10:58;6.60;;;2.97;;
79452;SDS011;68899;52.116;5.404;2023-12-14T14:13:25;7.47;;;4.15;;
79452;SDS011;68899;52.116;5.404;2023-12-14T14:15:52;6.38;;;3.90;;
79452;SDS011;68899;52.116;5.404;2023-12-14T14:18:19;7.35;;;4.25;;
79452;SDS011;68899;52.116;5.404;2023-12-14T14:20:46;7.05;;;4.13;;
79452;SDS011;68899;52.116;5.404;2023-12-14T14:23:12;7.95;;;3.40;;
79452;SDS011;68899;52.116;5.404;2023-12-14T14:25:39;6.22;;;3.85;;
79452;SDS011;68899;52.116;5.404;2023-12-14T14:28:05;8.93;;;3.72;;
79452;SDS011;68899;52.116;5.404;2023-12-14T14:30:32;9.55;;;4.60;;
79452;SDS011;68899;52.116;5.404;2023-12-14T14:32:58;7.93;;;4.30;;
79452;SDS011;68899;52.116;5.404;2023-12-14T14:35:25;6.82;;;3.95;;
79452;SDS011;68899;52.116;5.404;2023-12-14T14:37:52;8.15;;;4.35;;
79452;SDS011;68899;52.116;5.404;2023-12-14T14:40:18;7.90;;;4.38;;
79452;SDS011;68899;52.116;5.404;2023-12-14T14:42:45;7.47;;;4.47;;
79452;SDS011;68899;52.116;5.404;2023-12-14T14:45:11;7.97;;;4.90;;
79452;SDS011;68899;52.116;5.404;2023-12-14T14:47:39;9.65;;;5.68;;